sensor_id;sensor_type;location;lat;lon;timestamp;pressure;altitude;pressure_sealevel;temperature;humidity
56006;BME280;41888;44.696;10.522;2023-05-08T00:00:30;100643.19;;;18.26;100.00
56006;BME280;41888;44.696;10.522;2023-05-08T00:02:56;100637.13;;;18.36;100.00
56006;BME280;41888;44.696;10.522;2023-05-08T00:05:22;100640.88;;;18.35;100.00
56006;BME280;41888;44.696;10.522;2023-05-08T00:07:48;100642.56;;;18.41;100.00
56006;BME280;41888;44.696;10.522;2023-05-08T00:10:17;100646.47;;;18.28;100.00
56006;BME280;41888;44.696;10.522;2023-05-08T00:12:43;100633.88;;;18.34;100.00
56006;BME280;41888;44.696;10.522;2023-05-08T00:15:09;100637.31;;;18.29;100.00
56006;BME280;41888;44.696;10.522;2023-05-08T00:17:35;100642.72;;;18.29;100.00
56006;BME280;41888;44.696;10.522;2023-05-08T00:20:02;100642.63;;;18.24;100.00
56006;BME280;41888;44.696;10.522;2023-05-08T00:22:28;100636.31;;;18.13;100.00
56006;BME280;41888;44.696;10.522;2023-05-08T00:24:54;100632.81;;;18.13;100.00
56006;BME280;41888;44.696;10.522;2023-05-08T00:27:20;100633.94;;;18.17;100.00
56006;BME280;41888;44.696;10.522;2023-05-08T00:29:48;100633.13;;;18.17;100.00
56006;BME280;41888;44.696;10.522;2023-05-08T00:32:15;100630.84;;;18.08;100.00
56006;BME280;41888;44.696;10.522;2023-05-08T00:34:41;100629.09;;;17.97;100.00
56006;BME280;41888;44.696;10.522;2023-05-08T00:37:07;100637.25;;;18.02;100.00
56006;BME280;41888;44.696;10.522;2023-05-08T00:39:33;100641.53;;;18.03;100.00
56006;BME280;41888;44.696;10.522;2023-05-08T00:41:59;100642.78;;;17.96;100.00
56006;BME280;41888;44.696;10.522;2023-05-08T00:44:26;100643.50;;;18.08;100.00
56006;BME280;41888;44.696;10.522;2023-05-08T00:46:52;100640.25;;;18.06;100.00
56006;BME280;41888;44.696;10.522;2023-05-08T00:49:18;100635.81;;;18.17;100.00
56006;BME280;41888;44.696;10.522;2023-05-08T00:51:46;100630.59;;;18.32;100.00
56006;BME280;41888;44.696;10.522;2023-05-08T00:54:14;100633.28;;;18.10;100.00
56006;BME280;41888;44.696;10.522;2023-05-08T00:56:40;100638.53;;;18.00;100.00
56006;BME280;41888;44.696;10.522;2023-05-08T00:59:09;100639.19;;;18.07;100.00
56006;BME280;41888;44.696;10.522;2023-05-08T01:01:37;100642.69;;;18.07;100.00
56006;BME280;41888;44.696;10.522;2023-05-08T01:04:04;100639.34;;;18.00;100.00
56006;BME280;41888;44.696;10.522;2023-05-08T01:06:30;100634.09;;;17.72;100.00
56006;BME280;41888;44.696;10.522;2023-05-08T01:08:57;100636.28;;;17.58;100.00
56006;BME280;41888;44.696;10.522;2023-05-08T01:14:21;100634.72;;;17.46;100.00
56006;BME280;41888;44.696;10.522;2023-05-08T01:16:57;100625.22;;;17.38;100.00
56006;BME280;41888;44.696;10.522;2023-05-08T01:22:37;100637.25;;;17.02;100.00
56006;BME280;41888;44.696;10.522;2023-05-08T01:31:16;100643.56;;;16.96;100.00
56006;BME280;41888;44.696;10.522;2023-05-08T01:34:10;100656.53;;;16.99;100.00
56006;BME280;41888;44.696;10.522;2023-05-08T01:36:45;100658.09;;;17.12;100.00
56006;BME280;41888;44.696;10.522;2023-05-08T01:42:21;100649.41;;;17.21;100.00
56006;BME280;41888;44.696;10.522;2023-05-08T01:44:58;100652.56;;;17.18;100.00
56006;BME280;41888;44.696;10.522;2023-05-08T01:47:28;100651.25;;;17.21;100.00
56006;BME280;41888;44.696;10.522;2023-05-08T01:50:13;100659.78;;;17.01;100.00
56006;BME280;41888;44.696;10.522;2023-05-08T01:52:45;100654.28;;;17.08;100.00
56006;BME280;41888;44.696;10.522;2023-05-08T01:55:20;100655.97;;;16.97;100.00
56006;BME280;41888;44.696;10.522;2023-05-08T01:57:53;100653.59;;;17.01;100.00
56006;BME280;41888;44.696;10.522;2023-05-08T02:00:22;100648.94;;;16.96;100.00
56006;BME280;41888;44.696;10.522;2023-05-08T02:02:50;100660.75;;;16.95;100.00
56006;BME280;41888;44.696;10.522;2023-05-08T02:05:18;100659.94;;;16.95;100.00
56006;BME280;41888;44.696;10.522;2023-05-08T02:07:48;100664.53;;;16.82;100.00
56006;BME280;41888;44.696;10.522;2023-05-08T02:10:17;100657.66;;;16.86;100.00
56006;BME280;41888;44.696;10.522;2023-05-08T02:12:46;100653.72;;;16.66;100.00
56006;BME280;41888;44.696;10.522;2023-05-08T02:15:15;100655.97;;;16.69;100.00
56006;BME280;41888;44.696;10.522;2023-05-08T02:17:45;100656.63;;;16.76;100.00
56006;BME280;41888;44.696;10.522;2023-05-08T02:20:12;100659.19;;;16.71;100.00
56006;BME280;41888;44.696;10.522;2023-05-08T02:22:42;100662.88;;;16.53;100.00
56006;BME280;41888;44.696;10.522;2023-05-08T02:25:10;100662.28;;;16.51;100.00
56006;BME280;41888;44.696;10.522;2023-05-08T02:27:40;100655.03;;;16.52;100.00
56006;BME280;41888;44.696;10.522;2023-05-08T02:30:12;100658.66;;;16.45;100.00
56006;BME280;41888;44.696;10.522;2023-05-08T02:32:43;100658.69;;;16.34;100.00
56006;BME280;41888;44.696;10.522;2023-05-08T02:35:16;100660.13;;;16.25;100.00
56006;BME280;41888;44.696;10.522;2023-05-08T02:37:44;100654.41;;;16.10;100.00
56006;BME280;41888;44.696;10.522;2023-05-08T02:40:13;100653.25;;;16.05;100.00
56006;BME280;41888;44.696;10.522;2023-05-08T02:42:42;100651.72;;;16.21;100.00
56006;BME280;41888;44.696;10.522;2023-05-08T02:45:09;100657.53;;;16.30;100.00
56006;BME280;41888;44.696;10.522;2023-05-08T02:50:46;100655.34;;;15.92;100.00
56006;BME280;41888;44.696;10.522;2023-05-08T02:53:23;100650.34;;;15.95;100.00
56006;BME280;41888;44.696;10.522;2023-05-08T02:55:53;100657.38;;;15.85;100.00
56006;BME280;41888;44.696;10.522;2023-05-08T02:58:43;100655.50;;;15.74;100.00
56006;BME280;41888;44.696;10.522;2023-05-08T03:01:20;100652.59;;;15.75;100.00
56006;BME280;41888;44.696;10.522;2023-05-08T03:03:58;100657.47;;;15.78;100.00
56006;BME280;41888;44.696;10.522;2023-05-08T03:06:26;100648.38;;;15.68;100.00
56006;BME280;41888;44.696;10.522;2023-05-08T03:08:59;100646.97;;;15.53;100.00
56006;BME280;41888;44.696;10.522;2023-05-08T03:11:36;100649.06;;;15.63;100.00
56006;BME280;41888;44.696;10.522;2023-05-08T03:14:05;100648.25;;;15.62;100.00
56006;BME280;41888;44.696;10.522;2023-05-08T03:16:35;100643.72;;;15.75;100.00
56006;BME280;41888;44.696;10.522;2023-05-08T03:19:06;100656.53;;;15.73;100.00
56006;BME280;41888;44.696;10.522;2023-05-08T03:21:32;100655.84;;;15.54;100.00
56006;BME280;41888;44.696;10.522;2023-05-08T03:24:02;100660.38;;;15.53;100.00
56006;BME280;41888;44.696;10.522;2023-05-08T03:26:29;100667.47;;;15.18;100.00
56006;BME280;41888;44.696;10.522;2023-05-08T03:28:56;100669.34;;;15.17;100.00
56006;BME280;41888;44.696;10.522;2023-05-08T03:31:23;100674.16;;;15.27;100.00
56006;BME280;41888;44.696;10.522;2023-05-08T03:33:52;100674.00;;;15.10;100.00
56006;BME280;41888;44.696;10.522;2023-05-08T03:36:19;100671.19;;;15.05;100.00
56006;BME280;41888;44.696;10.522;2023-05-08T03:38:45;100680.97;;;15.00;100.00
56006;BME280;41888;44.696;10.522;2023-05-08T03:41:12;100681.63;;;15.25;100.00
56006;BME280;41888;44.696;10.522;2023-05-08T03:43:39;100686.38;;;15.23;100.00
56006;BME280;41888;44.696;10.522;2023-05-08T03:46:07;100690.47;;;15.26;100.00
56006;BME280;41888;44.696;10.522;2023-05-08T03:48:35;100692.63;;;15.05;100.00
56006;BME280;41888;44.696;10.522;2023-05-08T03:51:05;100686.22;;;15.06;100.00
56006;BME280;41888;44.696;10.522;2023-05-08T03:53:32;100692.16;;;15.08;100.00
56006;BME280;41888;44.696;10.522;2023-05-08T03:55:59;100681.31;;;15.03;100.00
56006;BME280;41888;44.696;10.522;2023-05-08T03:58:36;100689.16;;;14.87;100.00
56006;BME280;41888;44.696;10.522;2023-05-08T04:01:24;100695.75;;;15.02;100.00
56006;BME280;41888;44.696;10.522;2023-05-08T04:04:11;100692.97;;;15.09;100.00
56006;BME280;41888;44.696;10.522;2023-05-08T04:06:55;100698.25;;;15.15;100.00
56006;BME280;41888;44.696;10.522;2023-05-08T04:13:05;100700.75;;;14.99;100.00
56006;BME280;41888;44.696;10.522;2023-05-08T04:15:37;100715.81;;;14.82;100.00
56006;BME280;41888;44.696;10.522;2023-05-08T04:18:11;100710.16;;;14.90;100.00
56006;BME280;41888;44.696;10.522;2023-05-08T04:20:40;100722.94;;;14.88;100.00
56006;BME280;41888;44.696;10.522;2023-05-08T04:23:07;100724.19;;;15.03;100.00
56006;BME280;41888;44.696;10.522;2023-05-08T04:25:36;100730.28;;;15.10;100.00
56006;BME280;41888;44.696;10.522;2023-05-08T04:28:04;100737.16;;;15.18;100.00
56006;BME280;41888;44.696;10.522;2023-05-08T04:30:30;100738.59;;;15.20;100.00
56006;BME280;41888;44.696;10.522;2023-05-08T04:32:57;100739.72;;;15.13;100.00
56006;BME280;41888;44.696;10.522;2023-05-08T04:35:24;100740.09;;;15.16;100.00
56006;BME280;41888;44.696;10.522;2023-05-08T04:37:50;100738.03;;;15.30;100.00
56006;BME280;41888;44.696;10.522;2023-05-08T04:40:17;100739.69;;;15.31;100.00
56006;BME280;41888;44.696;10.522;2023-05-08T04:42:43;100745.31;;;15.41;100.00
56006;BME280;41888;44.696;10.522;2023-05-08T04:45:12;100745.66;;;15.45;100.00
56006;BME280;41888;44.696;10.522;2023-05-08T04:47:38;100740.88;;;15.47;100.00
56006;BME280;41888;44.696;10.522;2023-05-08T04:50:05;100746.69;;;15.32;100.00
56006;BME280;41888;44.696;10.522;2023-05-08T04:52:31;100740.66;;;15.48;100.00
56006;BME280;41888;44.696;10.522;2023-05-08T04:54:57;100749.22;;;15.57;100.00
56006;BME280;41888;44.696;10.522;2023-05-08T04:57:24;100750.16;;;15.62;100.00
56006;BME280;41888;44.696;10.522;2023-05-08T04:59:50;100756.34;;;15.63;100.00
56006;BME280;41888;44.696;10.522;2023-05-08T05:02:16;100754.41;;;15.70;100.00
56006;BME280;41888;44.696;10.522;2023-05-08T05:04:42;100749.25;;;15.69;100.00
56006;BME280;41888;44.696;10.522;2023-05-08T05:07:08;100747.88;;;15.78;100.00
56006;BME280;41888;44.696;10.522;2023-05-08T05:09:34;100755.03;;;15.95;100.00
56006;BME280;41888;44.696;10.522;2023-05-08T05:12:05;100757.81;;;16.00;100.00
56006;BME280;41888;44.696;10.522;2023-05-08T05:14:32;100754.19;;;16.18;100.00
56006;BME280;41888;44.696;10.522;2023-05-08T05:16:58;100758.75;;;16.41;100.00
56006;BME280;41888;44.696;10.522;2023-05-08T05:19:24;100759.44;;;16.71;100.00
56006;BME280;41888;44.696;10.522;2023-05-08T05:21:52;100765.44;;;17.02;100.00
56006;BME280;41888;44.696;10.522;2023-05-08T05:24:18;100766.81;;;17.04;100.00
56006;BME280;41888;44.696;10.522;2023-05-08T05:26:44;100768.75;;;17.20;100.00
56006;BME280;41888;44.696;10.522;2023-05-08T05:29:10;100771.88;;;17.57;100.00
56006;BME280;41888;44.696;10.522;2023-05-08T05:31:37;100772.66;;;17.86;100.00
56006;BME280;41888;44.696;10.522;2023-05-08T05:34:03;100769.31;;;18.29;100.00
56006;BME280;41888;44.696;10.522;2023-05-08T05:36:29;100764.97;;;18.28;100.00
56006;BME280;41888;44.696;10.522;2023-05-08T05:38:55;100778.66;;;18.60;100.00
56006;BME280;41888;44.696;10.522;2023-05-08T05:41:22;100773.25;;;19.04;100.00
56006;BME280;41888;44.696;10.522;2023-05-08T05:43:49;100776.06;;;19.62;100.00
56006;BME280;41888;44.696;10.522;2023-05-08T05:46:15;100787.09;;;19.83;100.00
56006;BME280;41888;44.696;10.522;2023-05-08T05:48:41;100787.91;;;20.20;100.00
56006;BME280;41888;44.696;10.522;2023-05-08T05:51:07;100785.53;;;20.29;100.00
56006;BME280;41888;44.696;10.522;2023-05-08T05:53:34;100782.63;;;19.66;100.00
56006;BME280;41888;44.696;10.522;2023-05-08T05:56:00;100777.78;;;19.20;100.00
56006;BME280;41888;44.696;10.522;2023-05-08T05:58:26;100784.63;;;19.06;100.00
56006;BME280;41888;44.696;10.522;2023-05-08T06:00:53;100776.53;;;19.06;100.00
56006;BME280;41888;44.696;10.522;2023-05-08T06:03:19;100783.06;;;18.66;100.00
56006;BME280;41888;44.696;10.522;2023-05-08T06:05:48;100775.66;;;18.40;100.00
56006;BME280;41888;44.696;10.522;2023-05-08T06:08:15;100783.69;;;18.73;100.00
56006;BME280;41888;44.696;10.522;2023-05-08T06:10:42;100795.94;;;20.47;100.00
56006;BME280;41888;44.696;10.522;2023-05-08T06:13:09;100793.09;;;21.31;100.00
56006;BME280;41888;44.696;10.522;2023-05-08T06:15:36;100793.94;;;21.41;100.00
56006;BME280;41888;44.696;10.522;2023-05-08T06:18:02;100792.66;;;21.79;100.00
56006;BME280;41888;44.696;10.522;2023-05-08T06:20:28;100796.63;;;21.36;100.00
56006;BME280;41888;44.696;10.522;2023-05-08T06:22:54;100805.25;;;21.18;100.00
56006;BME280;41888;44.696;10.522;2023-05-08T06:25:20;100796.44;;;20.86;100.00
56006;BME280;41888;44.696;10.522;2023-05-08T06:27:47;100798.34;;;20.38;100.00
56006;BME280;41888;44.696;10.522;2023-05-08T06:30:13;100800.13;;;20.28;100.00
56006;BME280;41888;44.696;10.522;2023-05-08T06:32:39;100791.63;;;20.93;100.00
56006;BME280;41888;44.696;10.522;2023-05-08T06:35:06;100798.06;;;20.87;100.00
56006;BME280;41888;44.696;10.522;2023-05-08T06:37:32;100802.41;;;20.04;100.00
56006;BME280;41888;44.696;10.522;2023-05-08T06:39:58;100793.50;;;19.76;100.00
56006;BME280;41888;44.696;10.522;2023-05-08T06:42:24;100789.84;;;19.61;100.00
56006;BME280;41888;44.696;10.522;2023-05-08T06:44:50;100790.69;;;19.39;100.00
56006;BME280;41888;44.696;10.522;2023-05-08T06:47:18;100787.81;;;19.24;100.00
56006;BME280;41888;44.696;10.522;2023-05-08T06:49:45;100778.41;;;19.05;100.00
56006;BME280;41888;44.696;10.522;2023-05-08T06:52:11;100781.44;;;19.57;100.00
56006;BME280;41888;44.696;10.522;2023-05-08T06:54:37;100780.13;;;19.92;100.00
56006;BME280;41888;44.696;10.522;2023-05-08T06:57:03;100787.50;;;20.33;100.00
56006;BME280;41888;44.696;10.522;2023-05-08T06:59:29;100779.75;;;20.15;100.00
56006;BME280;41888;44.696;10.522;2023-05-08T07:01:55;100782.47;;;19.83;100.00
56006;BME280;41888;44.696;10.522;2023-05-08T07:04:21;100788.63;;;19.47;100.00
56006;BME280;41888;44.696;10.522;2023-05-08T07:06:48;100788.72;;;20.20;100.00
56006;BME280;41888;44.696;10.522;2023-05-08T07:09:14;100783.66;;;20.66;100.00
56006;BME280;41888;44.696;10.522;2023-05-08T07:11:41;100789.31;;;20.64;100.00
56006;BME280;41888;44.696;10.522;2023-05-08T07:14:07;100795.47;;;20.18;100.00
56006;BME280;41888;44.696;10.522;2023-05-08T07:16:34;100801.47;;;20.62;100.00
56006;BME280;41888;44.696;10.522;2023-05-08T07:19:00;100800.81;;;20.92;100.00
56006;BME280;41888;44.696;10.522;2023-05-08T07:21:26;100806.91;;;21.19;100.00
56006;BME280;41888;44.696;10.522;2023-05-08T07:23:52;100799.91;;;21.38;100.00
56006;BME280;41888;44.696;10.522;2023-05-08T07:26:19;100798.25;;;21.27;100.00
56006;BME280;41888;44.696;10.522;2023-05-08T07:28:46;100792.59;;;21.29;100.00
56006;BME280;41888;44.696;10.522;2023-05-08T07:31:13;100803.28;;;20.98;100.00
56006;BME280;41888;44.696;10.522;2023-05-08T07:33:39;100814.22;;;20.72;100.00
56006;BME280;41888;44.696;10.522;2023-05-08T07:36:05;100819.75;;;20.97;100.00
56006;BME280;41888;44.696;10.522;2023-05-08T07:38:32;100813.75;;;20.90;100.00
56006;BME280;41888;44.696;10.522;2023-05-08T07:40:58;100807.22;;;20.76;100.00
56006;BME280;41888;44.696;10.522;2023-05-08T07:43:26;100817.72;;;20.67;100.00
56006;BME280;41888;44.696;10.522;2023-05-08T07:45:52;100826.53;;;20.52;100.00
56006;BME280;41888;44.696;10.522;2023-05-08T07:48:18;100824.34;;;20.49;100.00
56006;BME280;41888;44.696;10.522;2023-05-08T07:50:45;100829.16;;;20.42;100.00
56006;BME280;41888;44.696;10.522;2023-05-08T07:53:11;100818.31;;;20.37;100.00
56006;BME280;41888;44.696;10.522;2023-05-08T07:55:37;100820.31;;;20.20;100.00
56006;BME280;41888;44.696;10.522;2023-05-08T07:58:03;100816.84;;;20.56;100.00
56006;BME280;41888;44.696;10.522;2023-05-08T08:00:29;100811.16;;;20.58;100.00
56006;BME280;41888;44.696;10.522;2023-05-08T08:02:56;100813.00;;;20.99;100.00
56006;BME280;41888;44.696;10.522;2023-05-08T08:05:22;100811.63;;;20.92;100.00
56006;BME280;41888;44.696;10.522;2023-05-08T08:07:48;100815.03;;;20.67;100.00
56006;BME280;41888;44.696;10.522;2023-05-08T08:10:15;100814.31;;;20.92;100.00
56006;BME280;41888;44.696;10.522;2023-05-08T08:12:41;100818.06;;;20.86;100.00
56006;BME280;41888;44.696;10.522;2023-05-08T08:15:07;100807.81;;;20.88;100.00
56006;BME280;41888;44.696;10.522;2023-05-08T08:17:34;100820.72;;;20.71;100.00
56006;BME280;41888;44.696;10.522;2023-05-08T08:20:00;100811.13;;;20.53;100.00
56006;BME280;41888;44.696;10.522;2023-05-08T08:22:26;100815.28;;;20.65;100.00
56006;BME280;41888;44.696;10.522;2023-05-08T08:24:54;100817.50;;;20.05;100.00
56006;BME280;41888;44.696;10.522;2023-05-08T08:27:21;100820.28;;;20.15;100.00
56006;BME280;41888;44.696;10.522;2023-05-08T08:29:47;100819.66;;;20.03;100.00
56006;BME280;41888;44.696;10.522;2023-05-08T08:32:13;100820.41;;;19.93;100.00
56006;BME280;41888;44.696;10.522;2023-05-08T08:34:40;100827.06;;;19.86;100.00
56006;BME280;41888;44.696;10.522;2023-05-08T08:37:06;100821.22;;;19.67;100.00
56006;BME280;41888;44.696;10.522;2023-05-08T08:39:33;100829.47;;;19.82;100.00
56006;BME280;41888;44.696;10.522;2023-05-08T08:41:59;100819.28;;;20.26;100.00
56006;BME280;41888;44.696;10.522;2023-05-08T08:44:26;100825.44;;;20.16;100.00
56006;BME280;41888;44.696;10.522;2023-05-08T08:46:53;100820.84;;;20.17;100.00
56006;BME280;41888;44.696;10.522;2023-05-08T08:49:29;100817.28;;;20.11;100.00
56006;BME280;41888;44.696;10.522;2023-05-08T08:52:02;100814.41;;;20.23;100.00
56006;BME280;41888;44.696;10.522;2023-05-08T08:54:33;100809.00;;;20.23;100.00
56006;BME280;41888;44.696;10.522;2023-05-08T08:57:04;100809.72;;;20.40;100.00
56006;BME280;41888;44.696;10.522;2023-05-08T08:59:33;100810.06;;;20.54;100.00
56006;BME280;41888;44.696;10.522;2023-05-08T09:02:08;100813.53;;;20.49;100.00
56006;BME280;41888;44.696;10.522;2023-05-08T09:04:36;100816.41;;;20.80;100.00
56006;BME280;41888;44.696;10.522;2023-05-08T09:07:03;100818.41;;;20.99;100.00
56006;BME280;41888;44.696;10.522;2023-05-08T09:09:31;100819.88;;;20.70;100.00
56006;BME280;41888;44.696;10.522;2023-05-08T09:11:59;100817.88;;;20.97;100.00
56006;BME280;41888;44.696;10.522;2023-05-08T09:14:25;100818.06;;;20.86;100.00
56006;BME280;41888;44.696;10.522;2023-05-08T09:16:55;100833.31;;;20.55;100.00
56006;BME280;41888;44.696;10.522;2023-05-08T09:19:21;100830.50;;;20.40;100.00
56006;BME280;41888;44.696;10.522;2023-05-08T09:21:48;100820.72;;;20.76;100.00
56006;BME280;41888;44.696;10.522;2023-05-08T09:24:15;100824.91;;;20.93;100.00
56006;BME280;41888;44.696;10.522;2023-05-08T09:26:41;100823.69;;;21.26;100.00
56006;BME280;41888;44.696;10.522;2023-05-08T09:29:15;100833.88;;;21.09;100.00
56006;BME280;41888;44.696;10.522;2023-05-08T09:31:46;100825.47;;;21.11;100.00
56006;BME280;41888;44.696;10.522;2023-05-08T09:34:30;100831.63;;;20.91;100.00
56006;BME280;41888;44.696;10.522;2023-05-08T09:37:11;100834.47;;;21.16;100.00
56006;BME280;41888;44.696;10.522;2023-05-08T09:39:38;100837.88;;;21.64;100.00
56006;BME280;41888;44.696;10.522;2023-05-08T09:42:06;100835.09;;;21.38;100.00
56006;BME280;41888;44.696;10.522;2023-05-08T09:44:51;100837.22;;;21.31;100.00
56006;BME280;41888;44.696;10.522;2023-05-08T09:47:19;100844.13;;;21.79;100.00
56006;BME280;41888;44.696;10.522;2023-05-08T09:50:04;100846.50;;;21.51;100.00
56006;BME280;41888;44.696;10.522;2023-05-08T09:52:32;100846.41;;;21.20;100.00
56006;BME280;41888;44.696;10.522;2023-05-08T09:55:05;100850.28;;;21.44;100.00
56006;BME280;41888;44.696;10.522;2023-05-08T09:57:34;100851.03;;;21.30;100.00
56006;BME280;41888;44.696;10.522;2023-05-08T10:00:11;100846.75;;;21.44;100.00
56006;BME280;41888;44.696;10.522;2023-05-08T10:02:39;100848.84;;;21.27;100.00
56006;BME280;41888;44.696;10.522;2023-05-08T10:07:48;100849.94;;;21.31;100.00
56006;BME280;41888;44.696;10.522;2023-05-08T10:10:25;100843.47;;;21.37;100.00
56006;BME280;41888;44.696;10.522;2023-05-08T10:12:53;100843.28;;;21.74;100.00
56006;BME280;41888;44.696;10.522;2023-05-08T10:15:24;100843.78;;;21.45;100.00
56006;BME280;41888;44.696;10.522;2023-05-08T10:18:06;100835.38;;;21.47;100.00
56006;BME280;41888;44.696;10.522;2023-05-08T10:20:35;100842.22;;;21.75;100.00
56006;BME280;41888;44.696;10.522;2023-05-08T10:23:06;100836.56;;;21.86;100.00
56006;BME280;41888;44.696;10.522;2023-05-08T10:25:50;100824.88;;;21.66;100.00
56006;BME280;41888;44.696;10.522;2023-05-08T10:28:55;100823.34;;;22.15;100.00
56006;BME280;41888;44.696;10.522;2023-05-08T10:31:24;100819.19;;;22.73;95.99
56006;BME280;41888;44.696;10.522;2023-05-08T10:33:55;100821.66;;;22.40;96.32
56006;BME280;41888;44.696;10.522;2023-05-08T10:36:26;100824.38;;;22.45;96.94
56006;BME280;41888;44.696;10.522;2023-05-08T10:38:53;100820.56;;;21.80;100.00
56006;BME280;41888;44.696;10.522;2023-05-08T10:41:22;100828.69;;;21.85;99.04
56006;BME280;41888;44.696;10.522;2023-05-08T10:43:49;100810.56;;;22.11;96.18
56006;BME280;41888;44.696;10.522;2023-05-08T10:55:07;100811.84;;;22.74;94.29
56006;BME280;41888;44.696;10.522;2023-05-08T10:57:34;100802.97;;;22.33;95.85
56006;BME280;41888;44.696;10.522;2023-05-08T11:00:01;100809.72;;;21.85;98.43
56006;BME280;41888;44.696;10.522;2023-05-08T11:02:29;100805.38;;;21.89;98.40
56006;BME280;41888;44.696;10.522;2023-05-08T11:05:14;100801.81;;;21.43;100.00
56006;BME280;41888;44.696;10.522;2023-05-08T11:07:56;100801.81;;;21.53;100.00
56006;BME280;41888;44.696;10.522;2023-05-08T11:10:29;100790.50;;;21.66;100.00
56006;BME280;41888;44.696;10.522;2023-05-08T11:12:57;100789.94;;;21.79;100.00
56006;BME280;41888;44.696;10.522;2023-05-08T11:15:40;100783.94;;;22.53;98.39
56006;BME280;41888;44.696;10.522;2023-05-08T11:18:09;100782.75;;;22.90;93.13
56006;BME280;41888;44.696;10.522;2023-05-08T11:20:41;100774.81;;;21.99;94.10
56006;BME280;41888;44.696;10.522;2023-05-08T11:23:27;100775.59;;;21.84;97.42
56006;BME280;41888;44.696;10.522;2023-05-08T11:26:05;100784.84;;;22.08;94.79
56006;BME280;41888;44.696;10.522;2023-05-08T11:28:33;100786.75;;;22.03;94.07
56006;BME280;41888;44.696;10.522;2023-05-08T11:31:03;100779.84;;;22.66;92.92
56006;BME280;41888;44.696;10.522;2023-05-08T11:33:31;100774.94;;;23.32;89.75
56006;BME280;41888;44.696;10.522;2023-05-08T11:36:12;100778.28;;;23.24;100.00
56006;BME280;41888;44.696;10.522;2023-05-08T11:38:39;100773.84;;;22.84;92.16
56006;BME280;41888;44.696;10.522;2023-05-08T11:41:09;100768.78;;;22.52;99.07
56006;BME280;41888;44.696;10.522;2023-05-08T11:46:17;100764.09;;;22.83;100.00
56006;BME280;41888;44.696;10.522;2023-05-08T11:48:44;100762.34;;;22.03;100.00
56006;BME280;41888;44.696;10.522;2023-05-08T11:51:11;100768.00;;;21.86;100.00
56006;BME280;41888;44.696;10.522;2023-05-08T11:53:39;100758.72;;;22.53;100.00
56006;BME280;41888;44.696;10.522;2023-05-08T11:56:05;100762.56;;;22.37;100.00
56006;BME280;41888;44.696;10.522;2023-05-08T11:58:31;100757.09;;;22.57;100.00
56006;BME280;41888;44.696;10.522;2023-05-08T12:00:58;100764.78;;;22.19;100.00
56006;BME280;41888;44.696;10.522;2023-05-08T12:03:24;100766.38;;;22.30;100.00
56006;BME280;41888;44.696;10.522;2023-05-08T12:05:53;100756.03;;;22.43;100.00
56006;BME280;41888;44.696;10.522;2023-05-08T12:08:20;100756.81;;;22.73;100.00
56006;BME280;41888;44.696;10.522;2023-05-08T12:13:23;100758.53;;;22.24;100.00
56006;BME280;41888;44.696;10.522;2023-05-08T12:15:57;100763.56;;;22.66;97.79
56006;BME280;41888;44.696;10.522;2023-05-08T12:18:25;100765.75;;;22.59;93.75
56006;BME280;41888;44.696;10.522;2023-05-08T12:21:01;100766.38;;;21.80;95.27
56006;BME280;41888;44.696;10.522;2023-05-08T12:23:28;100762.59;;;22.16;93.76
56006;BME280;41888;44.696;10.522;2023-05-08T12:25:58;100761.22;;;22.39;92.75
56006;BME280;41888;44.696;10.522;2023-05-08T12:28:25;100756.88;;;22.33;92.31
56006;BME280;41888;44.696;10.522;2023-05-08T12:30:52;100760.78;;;22.91;89.27
56006;BME280;41888;44.696;10.522;2023-05-08T12:33:19;100759.38;;;23.53;86.28
56006;BME280;41888;44.696;10.522;2023-05-08T12:35:45;100759.94;;;23.50;85.18
56006;BME280;41888;44.696;10.522;2023-05-08T12:38:12;100756.63;;;23.14;86.88
56006;BME280;41888;44.696;10.522;2023-05-08T12:40:43;100757.22;;;23.45;84.49
56006;BME280;41888;44.696;10.522;2023-05-08T12:43:09;100756.50;;;22.75;86.27
56006;BME280;41888;44.696;10.522;2023-05-08T12:45:40;100750.66;;;22.32;88.31
56006;BME280;41888;44.696;10.522;2023-05-08T12:48:11;100753.91;;;22.40;88.84
56006;BME280;41888;44.696;10.522;2023-05-08T12:50:39;100764.22;;;22.27;90.69
56006;BME280;41888;44.696;10.522;2023-05-08T12:53:10;100764.22;;;21.82;92.46
56006;BME280;41888;44.696;10.522;2023-05-08T12:55:38;100768.56;;;21.88;91.61
56006;BME280;41888;44.696;10.522;2023-05-08T12:58:10;100760.44;;;22.08;91.46
56006;BME280;41888;44.696;10.522;2023-05-08T13:00:41;100755.03;;;22.08;90.81
56006;BME280;41888;44.696;10.522;2023-05-08T13:03:10;100751.66;;;22.72;89.06
56006;BME280;41888;44.696;10.522;2023-05-08T13:05:40;100758.13;;;22.81;86.69
56006;BME280;41888;44.696;10.522;2023-05-08T13:08:07;100750.47;;;22.93;83.62
56006;BME280;41888;44.696;10.522;2023-05-08T13:10:51;100754.78;;;23.43;82.82
56006;BME280;41888;44.696;10.522;2023-05-08T13:13:22;100751.81;;;23.45;83.32
56006;BME280;41888;44.696;10.522;2023-05-08T13:15:50;100749.19;;;23.30;84.40
56006;BME280;41888;44.696;10.522;2023-05-08T13:18:17;100735.97;;;23.18;84.69